Time;durP1;ratioP1;P1;durP2;ratioP2;P2;SDS_P1;SDS_P2;PMS_P1;PMS_P2;Temp;Humidity;BMP_temperature;BMP_pressure;BME280_temperature;BME280_humidity;BME280_pressure;Samples;Min_cycle;Max_cycle;Signal;HPM_P1;HPM_P2
2023/06/20 00:01:21;;;;;;;15.13;8.48;;;21.20;99.90;;;;;;5019596;28;20218;-86
2023/06/20 00:03:51;;;;;;;14.15;8.60;;;21.20;99.90;;;;;;5009709;28;20205;-87
2023/06/20 00:06:21;;;;;;;18.25;9.32;;;21.10;99.90;;;;;;5010427;28;20598;-85
2023/06/20 00:08:50;;;;;;;15.45;8.43;;;21.20;99.90;;;;;;4998742;28;20233;-86
2023/06/20 00:11:18;;;;;;;13.18;8.23;;;21.10;99.90;;;;;;5004633;28;20211;-86
2023/06/20 00:13:45;;;;;;;13.50;8.65;;;21.10;99.90;;;;;;5019662;28;20214;-85
2023/06/20 00:16:13;;;;;;;13.90;7.97;;;21.10;99.90;;;;;;5001100;28;20210;-87
2023/06/20 00:18:41;;;;;;;15.82;8.70;;;21.10;99.90;;;;;;5000401;28;20243;-86
2023/06/20 00:21:10;;;;;;;12.55;8.18;;;21.10;99.90;;;;;;4999745;28;20300;-86
2023/06/20 00:23:37;;;;;;;15.43;8.93;;;21.00;99.90;;;;;;5022309;28;20245;-85
2023/06/20 00:26:06;;;;;;;12.85;8.02;;;21.00;99.90;;;;;;4994821;28;20242;-87
2023/06/20 00:28:35;;;;;;;15.07;8.50;;;21.00;99.90;;;;;;5019863;28;20584;-88
2023/06/20 00:31:02;;;;;;;14.27;8.23;;;21.10;99.90;;;;;;5005374;28;20201;-88
2023/06/20 00:33:35;;;;;;;14.48;8.35;;;21.00;99.90;;;;;;5004801;28;20220;-89
2023/06/20 00:36:06;;;;;;;11.90;7.55;;;21.00;99.90;;;;;;5022912;28;20210;-86
2023/06/20 00:38:34;;;;;;;12.35;8.30;;;21.00;99.90;;;;;;5022343;28;20219;-86
2023/06/20 00:41:01;;;;;;;13.50;8.38;;;21.00;99.90;;;;;;5025827;28;20261;-85
2023/06/20 00:43:30;;;;;;;11.73;7.47;;;21.00;99.90;;;;;;5019675;28;20216;-85
2023/06/20 00:46:00;;;;;;;11.52;8.32;;;21.00;99.90;;;;;;5004990;28;20287;-85
2023/06/20 00:48:28;;;;;;;13.35;8.13;;;21.10;99.90;;;;;;5021699;28;20286;-85
2023/06/20 00:50:57;;;;;;;12.10;7.63;;;21.00;99.90;;;;;;5009149;28;20238;-88
2023/06/20 00:53:35;;;;;;;12.25;8.55;;;21.00;99.90;;;;;;5020887;28;20236;-85
2023/06/20 00:56:03;;;;;;;13.38;9.07;;;21.00;99.90;;;;;;5023960;28;20213;-84
2023/06/20 00:58:30;;;;;;;13.15;8.13;;;21.00;99.90;;;;;;5022843;28;20244;-85
2023/06/20 01:00:57;;;;;;;13.02;8.88;;;21.00;99.90;;;;;;5020906;28;21069;-86
2023/06/20 01:03:27;;;;;;;11.45;7.93;;;21.00;99.90;;;;;;5027486;28;20297;-86
2023/06/20 01:06:06;;;;;;;14.77;8.40;;;21.00;99.90;;;;;;5002621;28;20217;-87
2023/06/20 01:08:39;;;;;;;13.45;8.63;;;21.00;99.90;;;;;;5009625;28;20776;-87
2023/06/20 01:11:27;;;;;;;14.93;8.48;;;21.00;99.90;;;;;;5028720;28;20271;-84
2023/06/20 01:14:11;;;;;;;15.48;8.90;;;21.00;99.90;;;;;;5007277;28;20625;-84
2023/06/20 01:17:03;;;;;;;14.07;8.60;;;20.90;99.90;;;;;;5020784;28;20202;-87
2023/06/20 01:20:07;;;;;;;14.27;8.05;;;21.00;99.90;;;;;;4984883;28;20619;-87
2023/06/20 01:22:58;;;;;;;14.27;8.85;;;20.90;99.90;;;;;;5020473;28;20307;-85
2023/06/20 01:25:46;;;;;;;14.07;8.43;;;20.90;99.90;;;;;;5018263;28;20214;-85
2023/06/20 01:28:19;;;;;;;14.10;7.90;;;20.90;99.90;;;;;;5017217;28;20202;-85
2023/06/20 01:30:50;;;;;;;13.05;8.20;;;20.80;99.90;;;;;;5002735;28;20230;-85
2023/06/20 01:33:28;;;;;;;14.27;8.65;;;20.90;99.90;;;;;;5004948;28;20763;-85
2023/06/20 01:35:59;;;;;;;14.88;8.95;;;20.90;99.90;;;;;;5010406;28;20210;-85
2023/06/20 01:38:30;;;;;;;13.73;8.55;;;20.80;99.90;;;;;;5011329;28;20274;-86
2023/06/20 01:41:00;;;;;;;12.60;8.10;;;20.80;99.90;;;;;;5001788;28;20199;-86
2023/06/20 01:43:30;;;;;;;15.27;9.07;;;20.80;99.90;;;;;;5016588;28;20277;-84
2023/06/20 01:46:00;;;;;;;14.88;9.13;;;20.80;99.90;;;;;;5016927;28;20229;-85
2023/06/20 01:48:29;;;;;;;15.00;8.80;;;20.80;99.90;;;;;;5020776;28;20222;-86
2023/06/20 01:50:56;;;;;;;13.93;9.23;;;20.80;99.90;;;;;;5019220;28;20319;-85
2023/06/20 01:53:35;;;;;;;13.82;8.82;;;20.70;99.90;;;;;;5028654;28;20760;-85
2023/06/20 01:56:13;;;;;;;15.90;9.40;;;20.80;99.90;;;;;;5004169;28;20210;-86
2023/06/20 01:58:41;;;;;;;14.77;9.05;;;20.80;99.90;;;;;;5022038;28;20616;-86
2023/06/20 02:01:11;;;;;;;14.60;9.57;;;20.80;99.90;;;;;;5025866;28;20712;-85
2023/06/20 02:03:41;;;;;;;14.77;9.10;;;20.80;99.90;;;;;;5028983;28;20301;-86
2023/06/20 02:06:11;;;;;;;14.65;9.30;;;20.70;99.90;;;;;;5033610;28;20316;-85
2023/06/20 02:08:39;;;;;;;13.57;8.55;;;20.80;99.90;;;;;;5008117;28;20222;-85
2023/06/20 02:11:08;;;;;;;13.85;9.32;;;20.80;99.90;;;;;;5007738;28;20484;-85
2023/06/20 02:13:36;;;;;;;14.52;9.00;;;20.80;99.90;;;;;;5022830;28;20236;-86
2023/06/20 02:16:08;;;;;;;18.15;9.55;;;20.80;99.90;;;;;;4997266;28;20212;-85
2023/06/20 02:18:38;;;;;;;17.55;10.02;;;20.70;99.90;;;;;;5020930;28;20250;-87
2023/06/20 02:21:11;;;;;;;16.55;9.30;;;20.70;99.90;;;;;;5009843;28;20217;-85
2023/06/20 02:23:42;;;;;;;18.42;10.13;;;20.60;99.90;;;;;;5022639;28;20245;-86
2023/06/20 02:26:13;;;;;;;17.25;10.07;;;20.60;99.90;;;;;;5023287;28;20226;-86
2023/06/20 02:28:49;;;;;;;16.10;9.55;;;20.80;99.90;;;;;;5018874;28;20752;-85
2023/06/20 02:31:21;;;;;;;15.43;9.70;;;20.70;99.90;;;;;;5018902;28;20207;-86
2023/06/20 02:33:53;;;;;;;14.18;9.40;;;20.70;99.90;;;;;;5021063;28;20218;-85
2023/06/20 02:36:25;;;;;;;14.00;9.43;;;20.70;99.90;;;;;;5023604;28;20311;-84
2023/06/20 02:38:56;;;;;;;16.20;9.95;;;20.70;99.90;;;;;;5035066;28;20222;-85
2023/06/20 02:41:24;;;;;;;14.43;9.73;;;20.60;99.90;;;;;;5018711;28;20219;-85
2023/06/20 02:43:52;;;;;;;15.50;9.77;;;20.60;99.90;;;;;;4996776;28;20286;-86
2023/06/20 02:46:33;;;;;;;15.13;9.75;;;20.70;99.90;;;;;;5022159;28;20241;-85
2023/06/20 02:49:30;;;;;;;13.75;8.70;;;20.70;99.90;;;;;;5021564;28;20333;-87
2023/06/20 02:52:20;;;;;;;13.23;8.88;;;20.70;99.90;;;;;;5018897;28;20210;-85
2023/06/20 02:55:07;;;;;;;11.80;8.40;;;20.60;99.90;;;;;;5003330;28;20296;-85
2023/06/20 02:57:40;;;;;;;16.05;9.48;;;20.60;99.90;;;;;;5021587;28;20205;-86
2023/06/20 03:00:11;;;;;;;14.15;9.35;;;20.60;99.90;;;;;;5018352;28;20210;-86
2023/06/20 03:02:50;;;;;;;14.90;8.88;;;20.60;99.90;;;;;;5001464;28;20206;-86
2023/06/20 03:05:18;;;;;;;14.27;8.63;;;20.60;99.90;;;;;;5004916;28;20216;-86
2023/06/20 03:07:47;;;;;;;16.83;9.23;;;20.60;99.90;;;;;;4995313;28;20727;-84
2023/06/20 03:10:18;;;;;;;15.35;9.25;;;20.50;99.90;;;;;;5022052;28;20624;-85
2023/06/20 03:12:50;;;;;;;16.65;9.52;;;20.60;99.90;;;;;;5019518;28;20593;-85
2023/06/20 03:15:16;;;;;;;13.73;9.05;;;20.60;99.90;;;;;;4995478;28;20211;-86
2023/06/20 03:17:44;;;;;;;17.13;9.73;;;20.60;99.90;;;;;;5000358;28;20218;-86
2023/06/20 03:20:13;;;;;;;16.48;9.52;;;20.60;99.90;;;;;;5017919;28;20598;-85
2023/06/20 03:22:42;;;;;;;15.25;9.23;;;20.60;99.90;;;;;;5019515;28;20230;-85
2023/06/20 03:25:12;;;;;;;19.13;9.88;;;20.60;99.90;;;;;;5003827;28;20597;-86
2023/06/20 03:27:41;;;;;;;16.92;9.15;;;20.60;99.90;;;;;;5001742;28;20321;-85
2023/06/20 03:30:11;;;;;;;12.52;8.45;;;20.60;99.90;;;;;;4991846;28;20218;-85
2023/06/20 03:32:40;;;;;;;14.00;9.63;;;20.60;99.90;;;;;;5025781;28;20734;-86
2023/06/20 03:35:07;;;;;;;14.63;9.68;;;20.60;99.90;;;;;;5017731;28;20214;-86
2023/06/20 03:37:40;;;;;;;14.70;8.75;;;20.60;99.90;;;;;;5005576;28;20659;-84
2023/06/20 03:40:08;;;;;;;16.50;9.55;;;20.60;99.90;;;;;;5016583;28;20790;-84
2023/06/20 03:42:37;;;;;;;14.05;9.32;;;20.60;99.90;;;;;;5017629;28;20312;-85
2023/06/20 03:45:07;;;;;;;15.70;8.80;;;20.50;99.90;;;;;;5017539;28;20270;-86
2023/06/20 03:47:34;;;;;;;15.13;9.75;;;20.50;99.90;;;;;;5024772;28;20328;-84
2023/06/20 03:50:06;;;;;;;15.18;9.48;;;20.50;99.90;;;;;;5022529;28;20307;-84
2023/06/20 03:52:33;;;;;;;15.93;10.05;;;20.50;99.90;;;;;;5019794;28;20684;-85
2023/06/20 03:55:00;;;;;;;15.90;9.98;;;20.60;99.90;;;;;;5018043;28;20218;-84
2023/06/20 03:57:27;;;;;;;16.30;10.10;;;20.60;99.90;;;;;;5017089;28;20206;-86
2023/06/20 03:59:57;;;;;;;15.52;9.82;;;20.60;99.90;;;;;;4999244;28;20245;-85
2023/06/20 04:02:24;;;;;;;16.48;10.15;;;20.60;99.90;;;;;;5020383;28;20252;-85
2023/06/20 04:05:04;;;;;;;16.88;10.00;;;20.60;99.90;;;;;;5023585;28;20207;-86
2023/06/20 04:07:34;;;;;;;17.30;10.57;;;20.70;99.90;;;;;;5019859;28;20237;-85
2023/06/20 04:10:04;;;;;;;20.40;10.60;;;20.60;99.90;;;;;;5020046;28;21154;-85
2023/06/20 04:12:38;;;;;;;18.08;10.57;;;20.70;99.90;;;;;;5002464;28;20667;-85
2023/06/20 04:15:25;;;;;;;17.05;10.43;;;20.70;99.90;;;;;;5016311;28;20574;-86
2023/06/20 04:17:53;;;;;;;16.17;10.50;;;20.70;99.90;;;;;;4998946;28;20300;-87
2023/06/20 04:20:20;;;;;;;17.17;10.60;;;20.70;99.90;;;;;;5016160;28;20212;-85
2023/06/20 04:23:09;;;;;;;16.33;10.63;;;20.80;99.90;;;;;;5019021;28;20209;-85
2023/06/20 04:25:38;;;;;;;17.35;11.20;;;20.80;99.90;;;;;;5018633;28;20400;-85
2023/06/20 04:28:08;;;;;;;15.68;10.05;;;20.70;99.90;;;;;;5021185;28;20238;-86
2023/06/20 04:30:53;;;;;;;15.85;10.35;;;20.80;99.90;;;;;;5021519;28;20256;-85
2023/06/20 04:33:24;;;;;;;16.85;9.70;;;20.80;99.90;;;;;;5022459;28;20217;-86
2023/06/20 04:35:57;;;;;;;17.95;10.07;;;20.80;99.90;;;;;;5022771;28;20205;-87
2023/06/20 04:38:24;;;;;;;15.82;9.85;;;20.90;99.90;;;;;;5014718;28;20301;-85
2023/06/20 04:40:57;;;;;;;17.13;10.25;;;20.90;99.90;;;;;;5001029;28;20653;-86
2023/06/20 04:43:30;;;;;;;16.20;10.55;;;20.90;99.90;;;;;;5019647;28;20728;-86
2023/06/20 04:45:57;;;;;;;15.88;9.50;;;21.00;99.90;;;;;;5014567;28;20809;-84
2023/06/20 04:48:35;;;;;;;16.27;9.93;;;21.00;99.90;;;;;;5021553;28;20230;-85
2023/06/20 04:51:17;;;;;;;;;;;;;;;;;;;;;
2023/06/20 04:53:49;;;;;;;15.80;10.05;;;21.00;99.90;;;;;;5028586;28;20307;-85
2023/06/20 04:56:22;;;;;;;14.90;10.35;;;21.10;99.90;;;;;;5020558;28;20201;-86
2023/06/20 04:58:50;;;;;;;13.32;9.48;;;21.10;99.90;;;;;;5024249;28;20209;-85
2023/06/20 05:01:17;;;;;;;19.15;10.48;;;21.10;99.90;;;;;;5003431;28;20233;-86
2023/06/20 05:03:46;;;;;;;17.23;10.90;;;21.10;99.90;;;;;;5030077;28;20623;-87
2023/06/20 05:06:18;;;;;;;17.17;9.82;;;21.10;99.90;;;;;;5017297;28;20211;-85
2023/06/20 05:08:46;;;;;;;16.63;10.15;;;21.10;99.90;;;;;;5019966;28;20238;-86
2023/06/20 05:11:13;;;;;;;17.15;10.80;;;21.30;99.90;;;;;;5016824;28;20218;-84
2023/06/20 05:13:43;;;;;;;17.45;10.30;;;21.20;99.90;;;;;;5024683;28;20206;-85
2023/06/20 05:16:18;;;;;;;15.75;10.38;;;21.20;99.90;;;;;;5006379;28;20264;-85
2023/06/20 05:18:46;;;;;;;17.95;11.32;;;21.30;99.90;;;;;;4995180;28;20256;-85
2023/06/20 05:21:20;;;;;;;19.75;10.40;;;21.30;99.90;;;;;;4999402;28;20578;-84
2023/06/20 05:23:53;;;;;;;15.30;10.38;;;21.40;99.90;;;;;;4997395;28;20281;-84
2023/06/20 05:26:24;;;;;;;14.05;9.80;;;21.40;99.90;;;;;;5024387;28;20259;-85
2023/06/20 05:28:52;;;;;;;15.90;10.27;;;21.50;99.90;;;;;;5006318;28;20222;-84
2023/06/20 05:31:19;;;;;;;15.00;10.38;;;21.50;99.90;;;;;;5001743;28;20583;-85
2023/06/20 05:33:49;;;;;;;14.65;9.70;;;21.60;99.90;;;;;;5021369;28;20202;-87
2023/06/20 05:36:16;;;;;;;13.52;9.82;;;21.70;99.90;;;;;;5001159;28;20293;-85
2023/06/20 05:38:48;;;;;;;14.90;10.45;;;21.80;99.90;;;;;;5024674;28;20223;-84
2023/06/20 05:41:17;;;;;;;14.07;10.20;;;21.90;99.90;;;;;;5023682;28;20210;-86
2023/06/20 05:43:44;;;;;;;15.05;10.57;;;22.00;99.90;;;;;;5007256;28;20240;-84
2023/06/20 05:46:11;;;;;;;15.38;10.18;;;21.80;99.90;;;;;;5023130;28;20226;-86
2023/06/20 05:48:40;;;;;;;13.90;10.32;;;22.10;99.90;;;;;;5022241;28;20263;-86
2023/06/20 05:51:18;;;;;;;14.23;10.35;;;22.10;99.90;;;;;;5018242;28;20309;-85
2023/06/20 05:53:58;;;;;;;16.45;9.68;;;22.20;99.90;;;;;;5020380;28;20218;-85
2023/06/20 05:56:30;;;;;;;13.60;9.50;;;22.10;99.90;;;;;;5023146;28;20210;-85
2023/06/20 05:59:29;;;;;;;;;;;;;;;;;;;;;
2023/06/20 06:01:59;;;;;;;18.95;11.00;;;22.10;99.90;;;;;;5019357;28;20213;-86
2023/06/20 06:04:33;;;;;;;13.90;9.77;;;22.10;99.90;;;;;;5031273;28;20194;-87
2023/06/20 06:07:07;;;;;;;16.02;10.23;;;22.10;99.90;;;;;;5012298;28;20238;-86
2023/06/20 06:09:41;;;;;;;18.05;10.43;;;22.10;99.90;;;;;;5018985;28;20216;-84
2023/06/20 06:12:13;;;;;;;15.77;10.27;;;22.10;99.90;;;;;;5022531;28;20212;-86
2023/06/20 06:14:40;;;;;;;17.65;10.50;;;22.10;99.90;;;;;;5020883;28;20577;-85
2023/06/20 06:17:08;;;;;;;15.30;11.02;;;22.10;99.90;;;;;;4994961;28;20563;-85
2023/06/20 06:19:35;;;;;;;17.27;10.35;;;22.10;99.90;;;;;;5000757;28;20691;-84
2023/06/20 06:22:05;;;;;;;14.00;10.18;;;22.10;99.90;;;;;;5019947;28;20738;-86
2023/06/20 06:24:32;;;;;;;14.63;10.43;;;22.10;99.90;;;;;;4999483;28;20227;-87
2023/06/20 06:27:04;;;;;;;16.60;10.93;;;22.10;99.90;;;;;;5018307;28;20199;-86
2023/06/20 06:29:35;;;;;;;16.02;11.13;;;22.10;99.90;;;;;;5019079;28;20228;-85
2023/06/20 06:32:08;;;;;;;15.77;10.48;;;22.20;99.90;;;;;;5023615;28;20236;-89
2023/06/20 06:34:35;;;;;;;16.02;10.13;;;22.20;99.90;;;;;;5004136;28;20209;-86
2023/06/20 06:37:03;;;;;;;14.88;9.88;;;22.20;99.90;;;;;;5025638;28;20221;-87
2023/06/20 06:39:36;;;;;;;17.35;11.00;;;22.30;99.90;;;;;;5022591;28;20866;-86
2023/06/20 06:42:10;;;;;;;17.75;10.20;;;22.20;99.90;;;;;;5022251;28;20201;-85
2023/06/20 06:44:39;;;;;;;15.18;11.05;;;22.40;99.90;;;;;;5020786;28;20670;-85
2023/06/20 06:47:10;;;;;;;16.55;10.95;;;22.40;99.90;;;;;;4998107;28;20237;-86
2023/06/20 06:49:45;;;;;;;15.25;10.50;;;22.40;99.90;;;;;;5017869;28;20252;-88
2023/06/20 06:52:15;;;;;;;21.77;11.10;;;22.60;99.90;;;;;;5017100;28;20254;-87
2023/06/20 06:54:43;;;;;;;17.90;10.60;;;22.60;99.90;;;;;;5023008;28;20300;-86
2023/06/20 06:57:15;;;;;;;14.77;9.95;;;22.70;99.90;;;;;;5022465;28;20516;-86
2023/06/20 06:59:42;;;;;;;14.98;10.60;;;22.90;99.90;;;;;;5005941;28;20710;-85
2023/06/20 07:02:20;;;;;;;14.82;10.63;;;23.20;99.90;;;;;;5026473;28;20622;-87
2023/06/20 07:04:48;;;;;;;14.23;9.93;;;23.50;99.90;;;;;;5032064;28;20202;-84
2023/06/20 07:07:18;;;;;;;18.25;10.13;;;23.70;99.90;;;;;;5006856;28;20222;-86
2023/06/20 07:09:48;;;;;;;14.75;9.77;;;24.10;99.90;;;;;;5019642;28;20671;-84
2023/06/20 07:12:17;;;;;;;13.95;10.38;;;24.80;99.90;;;;;;5012928;28;20205;-86
2023/06/20 07:14:44;;;;;;;12.50;9.45;;;25.50;99.90;;;;;;5022010;28;20205;-87
2023/06/20 07:17:13;;;;;;;12.15;9.65;;;26.20;99.90;;;;;;5007364;28;20327;-87
2023/06/20 07:19:48;;;;;;;16.35;10.25;;;26.40;99.90;;;;;;5019840;28;20248;-86
2023/06/20 07:22:18;;;;;;;15.07;10.63;;;26.70;99.90;;;;;;5005013;28;20637;-86
2023/06/20 07:24:48;;;;;;;12.80;9.55;;;27.00;99.90;;;;;;5002260;28;20652;-86
2023/06/20 07:27:21;;;;;;;12.02;9.48;;;27.30;99.90;;;;;;5032649;28;20299;-85
2023/06/20 07:29:49;;;;;;;11.98;10.25;;;27.50;99.90;;;;;;5027888;28;20217;-89
2023/06/20 07:32:16;;;;;;;14.70;9.55;;;27.90;99.90;;;;;;5022546;28;20214;-87
2023/06/20 07:34:45;;;;;;;10.52;9.43;;;28.50;99.90;;;;;;5019524;28;20628;-86
2023/06/20 07:37:15;;;;;;;12.65;9.65;;;29.10;99.90;;;;;;5023911;28;20338;-88
2023/06/20 07:39:46;;;;;;;15.25;10.90;;;29.50;99.90;;;;;;5018190;28;20237;-86
2023/06/20 07:42:16;;;;;;;14.70;11.20;;;29.90;99.90;;;;;;4994981;28;20204;-86
2023/06/20 07:44:46;;;;;;;13.25;9.82;;;30.00;99.90;;;;;;5001805;28;20281;-87
2023/06/20 07:47:19;;;;;;;14.57;10.90;;;30.10;99.90;;;;;;5022500;28;20209;-86
2023/06/20 07:49:47;;;;;;;13.93;10.70;;;30.00;99.90;;;;;;5020397;28;20636;-86
2023/06/20 07:52:24;;;;;;;12.10;9.70;;;29.80;99.90;;;;;;5021151;28;20304;-86
2023/06/20 07:54:55;;;;;;;14.23;10.70;;;29.70;99.90;;;;;;5016851;28;20238;-86
2023/06/20 07:57:23;;;;;;;14.25;11.20;;;29.60;99.90;;;;;;5018510;28;20218;-86
2023/06/20 07:59:52;;;;;;;14.02;10.25;;;29.40;99.90;;;;;;5001432;28;20668;-88
2023/06/20 08:02:22;;;;;;;13.05;10.00;;;29.20;99.90;;;;;;5026344;28;20215;-85
2023/06/20 08:04:53;;;;;;;14.55;10.95;;;29.10;99.90;;;;;;5032471;28;20230;-88
2023/06/20 08:07:22;;;;;;;13.00;10.35;;;29.30;99.90;;;;;;5021653;28;20265;-84
2023/06/20 08:09:53;;;;;;;12.55;10.15;;;29.60;99.90;;;;;;5041949;28;20245;-87
2023/06/20 08:12:23;;;;;;;14.98;11.00;;;29.80;99.90;;;;;;5024831;28;20242;-85
2023/06/20 08:14:51;;;;;;;12.43;9.85;;;29.70;99.90;;;;;;5020967;28;20305;-86
2023/06/20 08:17:18;;;;;;;13.48;9.90;;;29.70;99.90;;;;;;5008851;28;20206;-88
2023/06/20 08:19:45;;;;;;;14.07;9.90;;;29.70;99.90;;;;;;5031148;28;20301;-84
2023/06/20 08:22:12;;;;;;;12.07;9.40;;;29.80;99.90;;;;;;5029485;28;20237;-84
2023/06/20 08:24:49;;;;;;;12.00;9.85;;;29.70;99.90;;;;;;5024915;28;20648;-86
2023/06/20 08:27:17;;;;;;;12.43;9.98;;;29.70;99.90;;;;;;5021014;28;20692;-86
2023/06/20 08:29:44;;;;;;;13.95;10.68;;;29.60;99.90;;;;;;5003387;28;20283;-86
2023/06/20 08:32:16;;;;;;;12.75;10.20;;;29.40;99.90;;;;;;5003489;28;20213;-87
2023/06/20 08:34:49;;;;;;;13.07;10.80;;;29.30;99.90;;;;;;5017301;28;20217;-87
2023/06/20 08:37:28;;;;;;;12.55;9.82;;;29.40;99.90;;;;;;5023131;28;20269;-86
2023/06/20 08:40:21;;;;;;;11.38;9.68;;;29.60;99.90;;;;;;4996154;28;20328;-87
2023/06/20 08:42:57;;;;;;;14.38;10.20;;;29.80;99.90;;;;;;5019921;28;20614;-85
2023/06/20 08:45:24;;;;;;;13.98;9.55;;;29.80;99.90;;;;;;4999886;28;20242;-86
2023/06/20 08:47:51;;;;;;;14.35;9.75;;;29.70;99.90;;;;;;5012323;28;20218;-87
2023/06/20 08:50:23;;;;;;;11.68;9.70;;;29.60;99.90;;;;;;5004912;28;20218;-87
2023/06/20 08:52:55;;;;;;;11.55;9.88;;;29.60;99.90;;;;;;5003321;28;20207;-85
2023/06/20 08:55:22;;;;;;;12.68;8.85;;;29.60;99.90;;;;;;5002835;28;20739;-86
2023/06/20 08:57:53;;;;;;;13.48;8.63;;;29.60;99.90;;;;;;4999908;28;20683;-86
2023/06/20 09:00:23;;;;;;;11.10;8.93;;;29.80;99.90;;;;;;5012011;28;20202;-86
2023/06/20 09:02:53;;;;;;;11.70;9.05;;;30.10;99.90;;;;;;4988894;28;20206;-87
2023/06/20 09:05:23;;;;;;;8.77;6.88;;;30.50;99.90;;;;;;4996208;28;20318;-85
2023/06/20 09:07:54;;;;;;;11.15;8.07;;;30.90;99.90;;;;;;5003747;28;20230;-87
2023/06/20 09:10:24;;;;;;;9.07;7.28;;;31.30;99.90;;;;;;4987638;28;20283;-87
2023/06/20 09:12:56;;;;;;;10.25;8.65;;;31.60;99.90;;;;;;4984860;28;20580;-84
2023/06/20 09:15:26;;;;;;;10.63;8.43;;;31.80;99.90;;;;;;4983682;28;20199;-86
2023/06/20 09:18:01;;;;;;;10.43;7.82;;;32.00;99.90;;;;;;4999437;28;20237;-85
2023/06/20 09:20:31;;;;;;;9.60;7.80;;;32.30;99.90;;;;;;4983115;28;20221;-87
2023/06/20 09:22:59;;;;;;;11.25;8.23;;;32.50;99.40;;;;;;4999306;28;20751;-87
2023/06/20 09:25:28;;;;;;;8.07;7.25;;;32.50;99.20;;;;;;5000712;28;20281;-85
2023/06/20 09:27:56;;;;;;;11.32;7.10;;;32.60;98.80;;;;;;5000663;28;20237;-86
2023/06/20 09:30:28;;;;;;;9.57;6.80;;;32.60;98.50;;;;;;5001186;28;20566;-86
2023/06/20 09:33:05;;;;;;;9.45;7.60;;;32.50;98.20;;;;;;4975562;28;20214;-86
2023/06/20 09:35:33;;;;;;;7.65;6.45;;;32.40;98.00;;;;;;4991166;28;20728;-84
2023/06/20 09:38:05;;;;;;;9.88;6.70;;;32.30;98.20;;;;;;5009728;28;20219;-86
2023/06/20 09:40:44;;;;;;;8.90;6.28;;;32.50;98.30;;;;;;5001125;28;20740;-86
2023/06/20 09:43:12;;;;;;;7.68;6.45;;;32.50;98.30;;;;;;5003640;28;20325;-86
2023/06/20 09:45:39;;;;;;;9.02;6.65;;;32.50;97.90;;;;;;5012122;28;20309;-86
2023/06/20 09:48:08;;;;;;;5.80;5.07;;;32.50;97.80;;;;;;5009037;28;20226;-86
2023/06/20 09:50:40;;;;;;;6.32;5.30;;;32.40;97.50;;;;;;5019521;28;20221;-86
2023/06/20 09:53:27;;;;;;;7.75;5.18;;;32.30;97.20;;;;;;5019517;28;20683;-86
2023/06/20 09:55:59;;;;;;;6.15;5.30;;;32.30;97.20;;;;;;5018578;28;20220;-87
2023/06/20 09:58:32;;;;;;;5.47;4.82;;;32.10;97.20;;;;;;5013706;28;20304;-85
2023/06/20 10:01:09;;;;;;;6.97;5.03;;;32.00;97.40;;;;;;5025990;28;20679;-87
2023/06/20 10:03:37;;;;;;;8.40;5.28;;;31.90;97.10;;;;;;5009518;28;20202;-87
2023/06/20 10:06:05;;;;;;;6.57;4.78;;;31.90;97.10;;;;;;5011919;28;20211;-87
2023/06/20 10:08:33;;;;;;;6.15;5.25;;;32.00;97.20;;;;;;4997124;28;20598;-87
2023/06/20 10:10:59;;;;;;;5.70;4.60;;;32.00;97.10;;;;;;5026522;28;20207;-86
2023/06/20 10:13:30;;;;;;;6.00;5.40;;;32.00;97.10;;;;;;5002471;28;20206;-89
2023/06/20 10:16:00;;;;;;;6.35;5.70;;;31.90;96.90;;;;;;5023872;28;20226;-89
2023/06/20 10:18:34;;;;;;;6.07;4.80;;;31.80;97.10;;;;;;5015973;28;20686;-88
2023/06/20 10:21:12;;;;;;;5.97;5.35;;;31.90;97.40;;;;;;5020025;28;20226;-88
2023/06/20 10:23:42;;;;;;;8.35;5.68;;;32.10;97.40;;;;;;5021002;28;20222;-90
2023/06/20 10:26:14;;;;;;;7.75;5.60;;;32.30;97.20;;;;;;5025210;28;20210;-86
2023/06/20 10:29:00;;;;;;;7.28;5.32;;;32.50;96.80;;;;;;5019846;28;20291;-88
2023/06/20 10:32:09;;;;;;;9.20;5.93;;;32.70;96.40;;;;;;5020907;28;20281;-87
2023/06/20 10:34:39;;;;;;;6.15;5.40;;;32.70;95.60;;;;;;5021431;28;20204;-86
2023/06/20 10:37:35;;;;;;;7.20;4.80;;;32.60;96.10;;;;;;5012076;28;20210;-89
2023/06/20 10:40:28;;;;;;;8.93;6.88;;;32.70;96.10;;;;;;5003525;28;20714;-87
2023/06/20 10:42:58;;;;;;;8.07;5.55;;;32.80;96.00;;;;;;5016971;28;20210;-88
2023/06/20 10:45:33;;;;;;;6.88;5.88;;;32.60;96.10;;;;;;5006758;28;20242;-88
2023/06/20 10:48:16;;;;;;;8.18;6.43;;;32.40;96.30;;;;;;5027074;28;20675;-89
2023/06/20 10:51:05;;;;;;;5.85;5.28;;;32.20;96.50;;;;;;5006473;28;20211;-87
2023/06/20 10:53:39;;;;;;;7.53;6.55;;;32.10;96.60;;;;;;4995844;28;20232;-87
2023/06/20 10:56:27;;;;;;;6.90;6.00;;;32.10;96.80;;;;;;5007308;28;20205;-87
2023/06/20 11:02:06;;;;;;;9.98;7.78;;;32.20;96.90;;;;;;5005232;28;20206;-88
2023/06/20 11:04:45;;;;;;;10.27;8.77;;;32.30;96.40;;;;;;5011331;28;20646;-89
2023/06/20 11:07:20;;;;;;;11.35;8.18;;;32.20;96.30;;;;;;5006913;28;20287;-88
2023/06/20 11:10:25;;;;;;;8.80;7.28;;;31.80;96.50;;;;;;5005440;28;20337;-89
2023/06/20 11:13:08;;;;;;;9.77;8.20;;;31.70;97.10;;;;;;5016708;28;20210;-87
2023/06/20 11:15:48;;;;;;;10.88;9.32;;;31.70;97.10;;;;;;5022355;28;20237;-87
2023/06/20 11:18:23;;;;;;;9.18;7.93;;;31.70;97.10;;;;;;4998894;28;20252;-86
2023/06/20 11:21:01;;;;;;;10.88;8.18;;;31.70;97.10;;;;;;5007309;28;20205;-87
2023/06/20 11:24:00;;;;;;;8.85;7.20;;;31.80;97.30;;;;;;5006531;28;20644;-88
2023/06/20 11:26:31;;;;;;;8.15;6.82;;;31.90;96.90;;;;;;5016518;28;20245;-87
2023/06/20 11:29:10;;;;;;;11.07;7.28;;;32.10;96.80;;;;;;4996015;28;20276;-88
2023/06/20 11:31:44;;;;;;;8.30;7.05;;;32.20;96.70;;;;;;5012133;28;20422;-88
2023/06/20 11:34:17;;;;;;;8.50;7.15;;;32.40;96.50;;;;;;5013519;28;20323;-87
2023/06/20 11:36:50;;;;;;;8.93;6.68;;;32.40;96.00;;;;;;5018911;28;20229;-88
2023/06/20 11:39:21;;;;;;;6.68;5.97;;;32.40;95.70;;;;;;5020124;28;20280;-89
2023/06/20 11:41:48;;;;;;;8.73;6.38;;;32.50;95.70;;;;;;5004360;28;20210;-88
2023/06/20 11:44:28;;;;;;;7.28;5.93;;;32.50;95.50;;;;;;5012059;28;20810;-86
2023/06/20 11:47:01;;;;;;;7.13;6.35;;;32.60;95.20;;;;;;4999528;28;20300;-89
2023/06/20 11:52:33;;;;;;;7.30;6.47;;;32.50;95.30;;;;;;5021128;28;20784;-87
2023/06/20 11:55:11;;;;;;;9.52;7.00;;;32.70;95.20;;;;;;5003683;28;20221;-88
2023/06/20 11:57:48;;;;;;;6.75;5.47;;;32.90;94.90;;;;;;5029397;28;20587;-88
2023/06/20 12:00:39;;;;;;;8.10;5.68;;;32.80;94.60;;;;;;4998907;28;20221;-88
2023/06/20 12:03:20;;;;;;;6.32;5.10;;;32.80;94.40;;;;;;5015658;28;20264;-88
2023/06/20 12:06:03;;;;;;;6.90;5.70;;;32.80;94.50;;;;;;4991820;28;20229;-90
2023/06/20 12:08:40;;;;;;;7.13;6.20;;;33.00;94.40;;;;;;5004156;28;20309;-88
2023/06/20 12:11:18;;;;;;;7.55;5.72;;;33.10;94.20;;;;;;4996568;28;20300;-88
2023/06/20 12:13:47;;;;;;;6.13;5.20;;;33.10;94.20;;;;;;5017378;28;20224;-88
2023/06/20 12:16:19;;;;;;;6.85;5.55;;;33.20;94.30;;;;;;4995180;28;20207;-88
2023/06/20 12:19:04;;;;;;;6.63;5.47;;;33.20;94.20;;;;;;5005227;28;20686;-88
2023/06/20 12:21:36;;;;;;;5.93;5.07;;;33.20;94.10;;;;;;5021947;28;20678;-88
2023/06/20 12:24:08;;;;;;;5.40;4.70;;;33.20;94.20;;;;;;5024287;28;20703;-86
2023/06/20 12:26:39;;;;;;;5.32;4.82;;;33.30;94.10;;;;;;5022144;28;20582;-89
2023/06/20 12:29:29;;;;;;;7.22;4.75;;;33.30;93.90;;;;;;5019391;28;20241;-89
2023/06/20 12:32:01;;;;;;;7.20;4.72;;;33.10;93.80;;;;;;5004266;28;20680;-88
2023/06/20 12:34:32;;;;;;;4.80;4.30;;;32.80;93.70;;;;;;5006081;28;20210;-88
2023/06/20 12:37:06;;;;;;;6.43;5.13;;;32.80;93.90;;;;;;5011604;28;20206;-89
2023/06/20 12:39:35;;;;;;;6.75;4.50;;;32.60;93.80;;;;;;5006210;28;20648;-88
2023/06/20 12:42:05;;;;;;;8.45;5.45;;;32.60;93.90;;;;;;4997705;28;20210;-88
2023/06/20 12:44:34;;;;;;;7.38;5.32;;;32.60;94.20;;;;;;5023926;28;20560;-87
2023/06/20 12:47:13;;;;;;;8.65;5.95;;;32.50;94.50;;;;;;4998618;28;20225;-87
2023/06/20 12:49:45;;;;;;;9.52;5.85;;;32.40;94.70;;;;;;5021019;28;20312;-87
2023/06/20 12:52:40;;;;;;;5.63;4.97;;;32.30;94.80;;;;;;5002756;28;20206;-89
2023/06/20 12:55:31;;;;;;;6.25;4.63;;;32.20;94.70;;;;;;5006397;28;20206;-91
2023/06/20 12:58:14;;;;;;;5.65;4.30;;;32.20;94.40;;;;;;5016082;28;20214;-90
2023/06/20 13:00:59;;;;;;;5.55;4.15;;;32.20;94.40;;;;;;5024101;28;20672;-87
2023/06/20 13:03:30;;;;;;;4.55;4.05;;;32.40;94.20;;;;;;5004763;28;20210;-92
2023/06/20 13:06:03;;;;;;;4.40;3.58;;;32.40;94.00;;;;;;5022691;28;20264;-87
2023/06/20 13:08:37;;;;;;;4.80;4.20;;;32.50;93.80;;;;;;5026488;28;20222;-88
2023/06/20 13:11:05;;;;;;;4.93;4.20;;;32.60;93.70;;;;;;5023881;28;20597;-89
2023/06/20 13:13:32;;;;;;;4.63;4.10;;;32.90;93.70;;;;;;4996856;28;20206;-87